sensor_id;sensor_type;location;lat;lon;timestamp;P1;durP1;ratioP1;P2;durP2;ratioP2
29538;SDS011;16482;51.046;4.498;2023-11-19T00:01:31;2.00;;;0.73;;
29538;SDS011;16482;51.046;4.498;2023-11-19T00:04:24;0.82;;;0.68;;
29538;SDS011;16482;51.046;4.498;2023-11-19T00:07:00;1.83;;;0.68;;
29538;SDS011;16482;51.046;4.498;2023-11-19T00:10:00;1.02;;;0.70;;
29538;SDS011;16482;51.046;4.498;2023-11-19T00:12:35;1.40;;;0.70;;
29538;SDS011;16482;51.046;4.498;2023-11-19T00:18:26;2.63;;;0.73;;
29538;SDS011;16482;51.046;4.498;2023-11-19T00:21:04;3.33;;;0.70;;
29538;SDS011;16482;51.046;4.498;2023-11-19T00:23:40;1.35;;;0.90;;
29538;SDS011;16482;51.046;4.498;2023-11-19T00:26:27;1.10;;;0.77;;
29538;SDS011;16482;51.046;4.498;2023-11-19T00:29:09;1.55;;;0.88;;
29538;SDS011;16482;51.046;4.498;2023-11-19T00:31:45;1.33;;;0.80;;
29538;SDS011;16482;51.046;4.498;2023-11-19T00:34:22;3.53;;;0.90;;
29538;SDS011;16482;51.046;4.498;2023-11-19T00:37:03;3.05;;;0.90;;
29538;SDS011;16482;51.046;4.498;2023-11-19T00:39:39;1.85;;;0.80;;
29538;SDS011;16482;51.046;4.498;2023-11-19T00:42:21;2.08;;;0.90;;
29538;SDS011;16482;51.046;4.498;2023-11-19T00:45:04;2.25;;;1.17;;
29538;SDS011;16482;51.046;4.498;2023-11-19T00:48:02;1.83;;;1.00;;
29538;SDS011;16482;51.046;4.498;2023-11-19T00:50:55;1.70;;;0.85;;
29538;SDS011;16482;51.046;4.498;2023-11-19T00:53:36;2.17;;;1.00;;
29538;SDS011;16482;51.046;4.498;2023-11-19T00:56:22;3.63;;;1.25;;
29538;SDS011;16482;51.046;4.498;2023-11-19T00:59:13;2.47;;;0.98;;
29538;SDS011;16482;51.046;4.498;2023-11-19T01:01:58;2.35;;;0.90;;
29538;SDS011;16482;51.046;4.498;2023-11-19T01:04:56;2.53;;;1.15;;
29538;SDS011;16482;51.046;4.498;2023-11-19T01:07:32;1.77;;;1.13;;
29538;SDS011;16482;51.046;4.498;2023-11-19T01:10:18;2.08;;;1.30;;
29538;SDS011;16482;51.046;4.498;2023-11-19T01:12:55;3.08;;;1.10;;
29538;SDS011;16482;51.046;4.498;2023-11-19T01:15:49;2.42;;;1.27;;
29538;SDS011;16482;51.046;4.498;2023-11-19T01:18:51;2.60;;;1.15;;
29538;SDS011;16482;51.046;4.498;2023-11-19T01:21:37;2.67;;;1.00;;
29538;SDS011;16482;51.046;4.498;2023-11-19T01:24:16;3.20;;;1.42;;
29538;SDS011;16482;51.046;4.498;2023-11-19T01:26:58;2.60;;;1.27;;
29538;SDS011;16482;51.046;4.498;2023-11-19T01:29:47;4.53;;;1.30;;
29538;SDS011;16482;51.046;4.498;2023-11-19T01:32:45;3.63;;;1.20;;
29538;SDS011;16482;51.046;4.498;2023-11-19T01:35:48;3.67;;;1.30;;
29538;SDS011;16482;51.046;4.498;2023-11-19T01:38:50;4.30;;;1.40;;
29538;SDS011;16482;51.046;4.498;2023-11-19T01:41:36;5.10;;;1.70;;
29538;SDS011;16482;51.046;4.498;2023-11-19T01:44:14;4.55;;;1.40;;
29538;SDS011;16482;51.046;4.498;2023-11-19T01:46:56;4.70;;;1.70;;
29538;SDS011;16482;51.046;4.498;2023-11-19T01:50:00;5.00;;;1.92;;
29538;SDS011;16482;51.046;4.498;2023-11-19T01:56:15;3.83;;;1.48;;
29538;SDS011;16482;51.046;4.498;2023-11-19T01:59:06;4.43;;;1.40;;
29538;SDS011;16482;51.046;4.498;2023-11-19T02:01:54;4.47;;;1.70;;
29538;SDS011;16482;51.046;4.498;2023-11-19T02:04:34;6.07;;;1.92;;
29538;SDS011;16482;51.046;4.498;2023-11-19T02:07:39;6.20;;;1.98;;
29538;SDS011;16482;51.046;4.498;2023-11-19T02:10:18;5.70;;;1.88;;
29538;SDS011;16482;51.046;4.498;2023-11-19T02:13:01;6.72;;;2.00;;
29538;SDS011;16482;51.046;4.498;2023-11-19T02:15:50;6.65;;;1.90;;
29538;SDS011;16482;51.046;4.498;2023-11-19T02:18:38;7.75;;;2.40;;
29538;SDS011;16482;51.046;4.498;2023-11-19T02:24:14;5.78;;;2.30;;
29538;SDS011;16482;51.046;4.498;2023-11-19T02:27:20;5.53;;;1.90;;
29538;SDS011;16482;51.046;4.498;2023-11-19T02:30:06;5.53;;;2.20;;
29538;SDS011;16482;51.046;4.498;2023-11-19T02:32:46;6.55;;;2.25;;
29538;SDS011;16482;51.046;4.498;2023-11-19T02:35:23;6.28;;;2.03;;
29538;SDS011;16482;51.046;4.498;2023-11-19T02:38:03;6.05;;;2.08;;
29538;SDS011;16482;51.046;4.498;2023-11-19T02:40:44;6.43;;;2.28;;
29538;SDS011;16482;51.046;4.498;2023-11-19T02:43:24;5.47;;;1.90;;
29538;SDS011;16482;51.046;4.498;2023-11-19T02:46:03;5.63;;;2.20;;
29538;SDS011;16482;51.046;4.498;2023-11-19T02:48:59;6.47;;;2.33;;
29538;SDS011;16482;51.046;4.498;2023-11-19T02:55:15;6.33;;;2.07;;
29538;SDS011;16482;51.046;4.498;2023-11-19T02:57:55;9.02;;;2.70;;
29538;SDS011;16482;51.046;4.498;2023-11-19T03:00:57;5.55;;;2.20;;
29538;SDS011;16482;51.046;4.498;2023-11-19T03:03:42;7.90;;;2.53;;
29538;SDS011;16482;51.046;4.498;2023-11-19T03:06:23;7.28;;;2.33;;
29538;SDS011;16482;51.046;4.498;2023-11-19T03:09:05;5.97;;;2.40;;
29538;SDS011;16482;51.046;4.498;2023-11-19T03:11:35;8.13;;;2.78;;
29538;SDS011;16482;51.046;4.498;2023-11-19T03:14:32;8.52;;;2.75;;
29538;SDS011;16482;51.046;4.498;2023-11-19T03:17:18;6.90;;;2.55;;
29538;SDS011;16482;51.046;4.498;2023-11-19T03:20:14;8.18;;;2.55;;
29538;SDS011;16482;51.046;4.498;2023-11-19T03:23:03;6.63;;;2.35;;
29538;SDS011;16482;51.046;4.498;2023-11-19T03:25:43;8.95;;;2.97;;
29538;SDS011;16482;51.046;4.498;2023-11-19T03:28:31;7.65;;;2.30;;
29538;SDS011;16482;51.046;4.498;2023-11-19T03:31:17;7.53;;;2.47;;
29538;SDS011;16482;51.046;4.498;2023-11-19T03:34:13;10.73;;;3.15;;
29538;SDS011;16482;51.046;4.498;2023-11-19T03:36:51;7.80;;;2.70;;
29538;SDS011;16482;51.046;4.498;2023-11-19T03:40:08;10.50;;;2.97;;
29538;SDS011;16482;51.046;4.498;2023-11-19T03:42:50;8.75;;;2.58;;
29538;SDS011;16482;51.046;4.498;2023-11-19T03:48:33;7.30;;;2.65;;
29538;SDS011;16482;51.046;4.498;2023-11-19T03:51:09;7.88;;;2.67;;
29538;SDS011;16482;51.046;4.498;2023-11-19T03:54:08;9.25;;;3.13;;
29538;SDS011;16482;51.046;4.498;2023-11-19T03:56:48;8.07;;;2.63;;
29538;SDS011;16482;51.046;4.498;2023-11-19T03:59:31;10.43;;;2.95;;
29538;SDS011;16482;51.046;4.498;2023-11-19T04:02:17;9.23;;;2.78;;
29538;SDS011;16482;51.046;4.498;2023-11-19T04:05:23;10.23;;;2.97;;
29538;SDS011;16482;51.046;4.498;2023-11-19T04:08:22;8.98;;;2.92;;
29538;SDS011;16482;51.046;4.498;2023-11-19T04:11:02;7.75;;;3.05;;
29538;SDS011;16482;51.046;4.498;2023-11-19T04:14:09;10.13;;;3.05;;
29538;SDS011;16482;51.046;4.498;2023-11-19T04:16:45;9.63;;;3.03;;
29538;SDS011;16482;51.046;4.498;2023-11-19T04:19:21;9.70;;;3.20;;
29538;SDS011;16482;51.046;4.498;2023-11-19T04:22:05;13.45;;;3.60;;
29538;SDS011;16482;51.046;4.498;2023-11-19T04:27:54;9.70;;;2.90;;
29538;SDS011;16482;51.046;4.498;2023-11-19T04:30:33;12.55;;;3.25;;
29538;SDS011;16482;51.046;4.498;2023-11-19T04:33:09;9.90;;;3.45;;
29538;SDS011;16482;51.046;4.498;2023-11-19T04:36:03;10.60;;;3.63;;
29538;SDS011;16482;51.046;4.498;2023-11-19T04:41:46;11.48;;;3.30;;
29538;SDS011;16482;51.046;4.498;2023-11-19T04:44:33;13.40;;;3.40;;
29538;SDS011;16482;51.046;4.498;2023-11-19T04:47:06;13.55;;;3.47;;
29538;SDS011;16482;51.046;4.498;2023-11-19T04:50:18;9.88;;;3.40;;
29538;SDS011;16482;51.046;4.498;2023-11-19T04:53:06;9.52;;;3.13;;
29538;SDS011;16482;51.046;4.498;2023-11-19T04:55:47;12.45;;;3.70;;
29538;SDS011;16482;51.046;4.498;2023-11-19T05:02:14;10.43;;;2.97;;
29538;SDS011;16482;51.046;4.498;2023-11-19T05:05:09;11.25;;;3.20;;
29538;SDS011;16482;51.046;4.498;2023-11-19T05:07:48;11.52;;;3.80;;
29538;SDS011;16482;51.046;4.498;2023-11-19T05:10:54;9.75;;;3.00;;
29538;SDS011;16482;51.046;4.498;2023-11-19T05:13:33;11.23;;;3.60;;
29538;SDS011;16482;51.046;4.498;2023-11-19T05:16:17;10.63;;;3.13;;
29538;SDS011;16482;51.046;4.498;2023-11-19T05:19:04;14.20;;;3.75;;
29538;SDS011;16482;51.046;4.498;2023-11-19T05:22:03;13.50;;;3.58;;
29538;SDS011;16482;51.046;4.498;2023-11-19T05:24:48;12.05;;;3.72;;
29538;SDS011;16482;51.046;4.498;2023-11-19T05:27:27;12.05;;;3.70;;
29538;SDS011;16482;51.046;4.498;2023-11-19T05:30:31;12.77;;;3.80;;
29538;SDS011;16482;51.046;4.498;2023-11-19T05:33:12;12.65;;;4.05;;
29538;SDS011;16482;51.046;4.498;2023-11-19T05:35:50;11.73;;;3.97;;
29538;SDS011;16482;51.046;4.498;2023-11-19T05:38:31;12.55;;;3.25;;
29538;SDS011;16482;51.046;4.498;2023-11-19T05:44:32;12.90;;;3.72;;
29538;SDS011;16482;51.046;4.498;2023-11-19T05:47:13;14.00;;;3.90;;
29538;SDS011;16482;51.046;4.498;2023-11-19T05:49:54;12.45;;;3.58;;
29538;SDS011;16482;51.046;4.498;2023-11-19T05:52:38;14.60;;;4.20;;
29538;SDS011;16482;51.046;4.498;2023-11-19T05:55:52;15.68;;;4.22;;
29538;SDS011;16482;51.046;4.498;2023-11-19T06:01:43;12.45;;;3.97;;
29538;SDS011;16482;51.046;4.498;2023-11-19T06:04:27;10.32;;;3.58;;
29538;SDS011;16482;51.046;4.498;2023-11-19T06:07:28;12.45;;;4.00;;
29538;SDS011;16482;51.046;4.498;2023-11-19T06:10:07;14.05;;;4.18;;
29538;SDS011;16482;51.046;4.498;2023-11-19T06:12:48;12.65;;;3.70;;
29538;SDS011;16482;51.046;4.498;2023-11-19T06:15:50;12.50;;;3.92;;
29538;SDS011;16482;51.046;4.498;2023-11-19T06:18:55;11.63;;;3.55;;
29538;SDS011;16482;51.046;4.498;2023-11-19T06:21:54;12.93;;;4.28;;
29538;SDS011;16482;51.046;4.498;2023-11-19T06:24:47;11.20;;;3.45;;
29538;SDS011;16482;51.046;4.498;2023-11-19T06:30:50;8.38;;;3.00;;
29538;SDS011;16482;51.046;4.498;2023-11-19T06:33:44;7.72;;;3.08;;
29538;SDS011;16482;51.046;4.498;2023-11-19T06:36:31;12.85;;;3.72;;
29538;SDS011;16482;51.046;4.498;2023-11-19T06:39:32;11.32;;;3.88;;
29538;SDS011;16482;51.046;4.498;2023-11-19T06:45:42;9.70;;;3.20;;
29538;SDS011;16482;51.046;4.498;2023-11-19T06:48:29;7.70;;;3.03;;
29538;SDS011;16482;51.046;4.498;2023-11-19T06:51:25;9.32;;;3.50;;
29538;SDS011;16482;51.046;4.498;2023-11-19T06:54:24;7.95;;;3.22;;
29538;SDS011;16482;51.046;4.498;2023-11-19T06:57:03;9.73;;;3.45;;
29538;SDS011;16482;51.046;4.498;2023-11-19T07:00:02;10.52;;;3.40;;
29538;SDS011;16482;51.046;4.498;2023-11-19T07:02:44;9.50;;;3.15;;
29538;SDS011;16482;51.046;4.498;2023-11-19T07:05:26;8.73;;;3.08;;
29538;SDS011;16482;51.046;4.498;2023-11-19T07:08:23;10.70;;;3.30;;
29538;SDS011;16482;51.046;4.498;2023-11-19T07:11:01;10.43;;;3.40;;
29538;SDS011;16482;51.046;4.498;2023-11-19T07:13:40;10.00;;;3.08;;
29538;SDS011;16482;51.046;4.498;2023-11-19T07:16:37;9.40;;;3.15;;
29538;SDS011;16482;51.046;4.498;2023-11-19T07:19:25;9.32;;;3.15;;
29538;SDS011;16482;51.046;4.498;2023-11-19T07:22:04;11.27;;;4.05;;
29538;SDS011;16482;51.046;4.498;2023-11-19T07:25:09;10.32;;;3.45;;
29538;SDS011;16482;51.046;4.498;2023-11-19T07:28:10;10.77;;;3.65;;
29538;SDS011;16482;51.046;4.498;2023-11-19T07:30:49;9.43;;;2.92;;
29538;SDS011;16482;51.046;4.498;2023-11-19T07:33:36;14.00;;;4.35;;
29538;SDS011;16482;51.046;4.498;2023-11-19T07:36:17;10.60;;;3.50;;
29538;SDS011;16482;51.046;4.498;2023-11-19T07:39:11;10.73;;;3.78;;
29538;SDS011;16482;51.046;4.498;2023-11-19T07:41:49;11.18;;;3.35;;
29538;SDS011;16482;51.046;4.498;2023-11-19T07:44:42;10.60;;;3.50;;
29538;SDS011;16482;51.046;4.498;2023-11-19T07:47:29;9.45;;;3.70;;
29538;SDS011;16482;51.046;4.498;2023-11-19T07:50:08;7.88;;;2.72;;
29538;SDS011;16482;51.046;4.498;2023-11-19T07:52:46;10.32;;;3.58;;
29538;SDS011;16482;51.046;4.498;2023-11-19T07:55:34;10.00;;;3.85;;
29538;SDS011;16482;51.046;4.498;2023-11-19T07:58:33;10.02;;;3.40;;
29538;SDS011;16482;51.046;4.498;2023-11-19T08:01:11;9.48;;;3.67;;
29538;SDS011;16482;51.046;4.498;2023-11-19T08:03:58;10.75;;;3.47;;
29538;SDS011;16482;51.046;4.498;2023-11-19T08:06:26;10.25;;;3.75;;
29538;SDS011;16482;51.046;4.498;2023-11-19T08:09:12;11.07;;;3.25;;
29538;SDS011;16482;51.046;4.498;2023-11-19T08:12:23;9.95;;;3.65;;
29538;SDS011;16482;51.046;4.498;2023-11-19T08:15:02;11.13;;;3.38;;
29538;SDS011;16482;51.046;4.498;2023-11-19T08:17:55;10.27;;;3.60;;
29538;SDS011;16482;51.046;4.498;2023-11-19T08:20:42;12.48;;;3.45;;
29538;SDS011;16482;51.046;4.498;2023-11-19T08:23:35;9.40;;;3.55;;
29538;SDS011;16482;51.046;4.498;2023-11-19T08:26:11;9.88;;;3.67;;
29538;SDS011;16482;51.046;4.498;2023-11-19T08:28:59;10.73;;;3.60;;
29538;SDS011;16482;51.046;4.498;2023-11-19T08:31:43;10.15;;;3.50;;
29538;SDS011;16482;51.046;4.498;2023-11-19T08:34:44;10.13;;;3.58;;
29538;SDS011;16482;51.046;4.498;2023-11-19T08:37:48;12.20;;;4.03;;
29538;SDS011;16482;51.046;4.498;2023-11-19T08:40:29;13.20;;;3.90;;
29538;SDS011;16482;51.046;4.498;2023-11-19T08:43:26;9.93;;;3.42;;
29538;SDS011;16482;51.046;4.498;2023-11-19T08:49:00;12.80;;;4.15;;
29538;SDS011;16482;51.046;4.498;2023-11-19T08:51:36;10.80;;;3.55;;
29538;SDS011;16482;51.046;4.498;2023-11-19T08:54:12;12.25;;;3.60;;
29538;SDS011;16482;51.046;4.498;2023-11-19T08:56:52;10.25;;;3.63;;
29538;SDS011;16482;51.046;4.498;2023-11-19T08:59:41;10.07;;;3.90;;
29538;SDS011;16482;51.046;4.498;2023-11-19T09:02:23;9.38;;;3.35;;
29538;SDS011;16482;51.046;4.498;2023-11-19T09:05:02;9.32;;;3.50;;
29538;SDS011;16482;51.046;4.498;2023-11-19T09:07:58;11.48;;;3.47;;
29538;SDS011;16482;51.046;4.498;2023-11-19T09:10:39;8.75;;;3.10;;
29538;SDS011;16482;51.046;4.498;2023-11-19T09:13:15;10.82;;;3.42;;
29538;SDS011;16482;51.046;4.498;2023-11-19T09:15:51;8.63;;;3.38;;
29538;SDS011;16482;51.046;4.498;2023-11-19T09:18:30;10.15;;;3.53;;
29538;SDS011;16482;51.046;4.498;2023-11-19T09:21:31;9.40;;;3.42;;
29538;SDS011;16482;51.046;4.498;2023-11-19T09:24:11;9.40;;;3.42;;
29538;SDS011;16482;51.046;4.498;2023-11-19T09:26:49;9.73;;;3.65;;
29538;SDS011;16482;51.046;4.498;2023-11-19T09:29:49;9.55;;;3.30;;
29538;SDS011;16482;51.046;4.498;2023-11-19T09:32:25;10.88;;;3.50;;
29538;SDS011;16482;51.046;4.498;2023-11-19T09:35:02;12.55;;;3.83;;
29538;SDS011;16482;51.046;4.498;2023-11-19T09:37:38;8.73;;;3.33;;
29538;SDS011;16482;51.046;4.498;2023-11-19T09:40:22;8.48;;;3.40;;
29538;SDS011;16482;51.046;4.498;2023-11-19T09:42:59;11.52;;;3.55;;
29538;SDS011;16482;51.046;4.498;2023-11-19T09:45:52;11.10;;;3.42;;
29538;SDS011;16482;51.046;4.498;2023-11-19T09:48:34;7.70;;;3.13;;
29538;SDS011;16482;51.046;4.498;2023-11-19T09:51:08;10.05;;;3.40;;
29538;SDS011;16482;51.046;4.498;2023-11-19T09:54:04;8.32;;;3.20;;
29538;SDS011;16482;51.046;4.498;2023-11-19T09:56:45;8.80;;;3.17;;
29538;SDS011;16482;51.046;4.498;2023-11-19T09:59:43;9.68;;;3.35;;
29538;SDS011;16482;51.046;4.498;2023-11-19T10:05:30;8.30;;;3.25;;
29538;SDS011;16482;51.046;4.498;2023-11-19T10:08:06;10.82;;;3.47;;
29538;SDS011;16482;51.046;4.498;2023-11-19T10:11:07;9.38;;;3.28;;
29538;SDS011;16482;51.046;4.498;2023-11-19T10:14:03;10.90;;;3.50;;
29538;SDS011;16482;51.046;4.498;2023-11-19T10:16:40;9.88;;;3.53;;
29538;SDS011;16482;51.046;4.498;2023-11-19T10:19:22;8.10;;;3.03;;
29538;SDS011;16482;51.046;4.498;2023-11-19T10:22:07;13.85;;;3.92;;
29538;SDS011;16482;51.046;4.498;2023-11-19T10:24:54;9.13;;;3.35;;
29538;SDS011;16482;51.046;4.498;2023-11-19T10:27:30;9.60;;;3.10;;
29538;SDS011;16482;51.046;4.498;2023-11-19T10:30:18;8.43;;;2.90;;
29538;SDS011;16482;51.046;4.498;2023-11-19T10:33:09;8.68;;;3.55;;
29538;SDS011;16482;51.046;4.498;2023-11-19T10:38:51;9.68;;;3.33;;
29538;SDS011;16482;51.046;4.498;2023-11-19T10:41:32;10.05;;;3.40;;
29538;SDS011;16482;51.046;4.498;2023-11-19T10:44:10;8.13;;;3.00;;
29538;SDS011;16482;51.046;4.498;2023-11-19T10:47:06;8.77;;;3.00;;
29538;SDS011;16482;51.046;4.498;2023-11-19T10:50:01;8.27;;;3.15;;
29538;SDS011;16482;51.046;4.498;2023-11-19T10:52:40;8.63;;;3.40;;
29538;SDS011;16482;51.046;4.498;2023-11-19T10:55:35;10.30;;;3.50;;
29538;SDS011;16482;51.046;4.498;2023-11-19T10:58:23;8.60;;;3.20;;
29538;SDS011;16482;51.046;4.498;2023-11-19T11:01:09;9.07;;;3.35;;
29538;SDS011;16482;51.046;4.498;2023-11-19T11:03:45;8.48;;;3.50;;
29538;SDS011;16482;51.046;4.498;2023-11-19T11:06:31;8.48;;;3.15;;
29538;SDS011;16482;51.046;4.498;2023-11-19T11:09:10;9.57;;;3.40;;
29538;SDS011;16482;51.046;4.498;2023-11-19T11:11:57;11.05;;;3.58;;
29538;SDS011;16482;51.046;4.498;2023-11-19T11:14:51;8.25;;;2.65;;
29538;SDS011;16482;51.046;4.498;2023-11-19T11:17:46;8.35;;;3.10;;
29538;SDS011;16482;51.046;4.498;2023-11-19T11:20:23;8.77;;;3.05;;
29538;SDS011;16482;51.046;4.498;2023-11-19T11:23:53;8.35;;;3.03;;
29538;SDS011;16482;51.046;4.498;2023-11-19T11:32:40;8.68;;;2.95;;
29538;SDS011;16482;51.046;4.498;2023-11-19T11:38:27;9.32;;;3.05;;
29538;SDS011;16482;51.046;4.498;2023-11-19T11:41:16;7.68;;;2.95;;
29538;SDS011;16482;51.046;4.498;2023-11-19T11:44:12;10.68;;;3.30;;
29538;SDS011;16482;51.046;4.498;2023-11-19T11:47:26;7.53;;;3.10;;
29538;SDS011;16482;51.046;4.498;2023-11-19T11:50:22;6.93;;;2.72;;
29538;SDS011;16482;51.046;4.498;2023-11-19T11:58:28;9.30;;;3.40;;
29538;SDS011;16482;51.046;4.498;2023-11-19T12:01:14;9.23;;;2.83;;
29538;SDS011;16482;51.046;4.498;2023-11-19T12:03:55;6.78;;;2.78;;
29538;SDS011;16482;51.046;4.498;2023-11-19T12:10:10;11.98;;;3.58;;
29538;SDS011;16482;51.046;4.498;2023-11-19T12:18:54;10.95;;;4.03;;
29538;SDS011;16482;51.046;4.498;2023-11-19T12:21:47;10.55;;;3.15;;
29538;SDS011;16482;51.046;4.498;2023-11-19T12:24:43;8.18;;;3.20;;
29538;SDS011;16482;51.046;4.498;2023-11-19T12:27:34;8.95;;;3.05;;
29538;SDS011;16482;51.046;4.498;2023-11-19T12:30:11;9.10;;;3.17;;
29538;SDS011;16482;51.046;4.498;2023-11-19T12:32:52;9.07;;;3.10;;
29538;SDS011;16482;51.046;4.498;2023-11-19T12:35:51;9.25;;;3.63;;
29538;SDS011;16482;51.046;4.498;2023-11-19T12:38:30;8.73;;;3.15;;
29538;SDS011;16482;51.046;4.498;2023-11-19T12:41:08;9.10;;;3.15;;
29538;SDS011;16482;51.046;4.498;2023-11-19T12:44:06;10.13;;;3.63;;
29538;SDS011;16482;51.046;4.498;2023-11-19T12:46:45;7.88;;;2.85;;
29538;SDS011;16482;51.046;4.498;2023-11-19T12:49:36;8.80;;;3.20;;
29538;SDS011;16482;51.046;4.498;2023-11-19T12:52:15;9.07;;;3.30;;
29538;SDS011;16482;51.046;4.498;2023-11-19T12:58:30;8.68;;;2.97;;
29538;SDS011;16482;51.046;4.498;2023-11-19T13:01:10;8.98;;;2.97;;
29538;SDS011;16482;51.046;4.498;2023-11-19T13:04:17;6.43;;;2.80;;
29538;SDS011;16482;51.046;4.498;2023-11-19T13:06:56;8.50;;;3.10;;
29538;SDS011;16482;51.046;4.498;2023-11-19T13:09:36;8.15;;;3.15;;
29538;SDS011;16482;51.046;4.498;2023-11-19T13:12:22;8.57;;;3.13;;
29538;SDS011;16482;51.046;4.498;2023-11-19T13:14:54;9.30;;;3.35;;
29538;SDS011;16482;51.046;4.498;2023-11-19T13:17:22;8.02;;;3.17;;
29538;SDS011;16482;51.046;4.498;2023-11-19T13:20:01;9.23;;;3.28;;
29538;SDS011;16482;51.046;4.498;2023-11-19T13:23:01;11.02;;;3.17;;
29538;SDS011;16482;51.046;4.498;2023-11-19T13:25:38;8.82;;;3.22;;
29538;SDS011;16482;51.046;4.498;2023-11-19T13:28:35;7.97;;;2.88;;
29538;SDS011;16482;51.046;4.498;2023-11-19T13:33:47;7.65;;;3.03;;
29538;SDS011;16482;51.046;4.498;2023-11-19T13:36:28;8.98;;;2.95;;
29538;SDS011;16482;51.046;4.498;2023-11-19T13:39:09;8.13;;;3.00;;
29538;SDS011;16482;51.046;4.498;2023-11-19T13:41:51;7.35;;;3.05;;
29538;SDS011;16482;51.046;4.498;2023-11-19T13:44:37;9.38;;;3.38;;
29538;SDS011;16482;51.046;4.498;2023-11-19T13:47:16;10.10;;;3.00;;
29538;SDS011;16482;51.046;4.498;2023-11-19T13:50:16;9.73;;;3.10;;
29538;SDS011;16482;51.046;4.498;2023-11-19T13:55:59;8.80;;;3.15;;
29538;SDS011;16482;51.046;4.498;2023-11-19T13:58:35;7.25;;;2.85;;
29538;SDS011;16482;51.046;4.498;2023-11-19T14:01:11;8.45;;;3.30;;
29538;SDS011;16482;51.046;4.498;2023-11-19T14:06:29;6.47;;;2.70;;
29538;SDS011;16482;51.046;4.498;2023-11-19T14:09:02;6.43;;;2.55;;
29538;SDS011;16482;51.046;4.498;2023-11-19T14:11:58;9.35;;;2.92;;
29538;SDS011;16482;51.046;4.498;2023-11-19T14:15:00;6.13;;;2.65;;
29538;SDS011;16482;51.046;4.498;2023-11-19T14:17:46;8.77;;;2.83;;
29538;SDS011;16482;51.046;4.498;2023-11-19T14:23:14;8.38;;;2.85;;
29538;SDS011;16482;51.046;4.498;2023-11-19T14:25:53;7.47;;;2.95;;
29538;SDS011;16482;51.046;4.498;2023-11-19T14:28:30;7.90;;;2.92;;
29538;SDS011;16482;51.046;4.498;2023-11-19T14:31:11;7.45;;;3.00;;
29538;SDS011;16482;51.046;4.498;2023-11-19T14:33:57;8.05;;;2.85;;
29538;SDS011;16482;51.046;4.498;2023-11-19T14:36:43;8.57;;;2.97;;
29538;SDS011;16482;51.046;4.498;2023-11-19T14:39:20;7.45;;;3.00;;
29538;SDS011;16482;51.046;4.498;2023-11-19T14:42:08;8.38;;;3.15;;
29538;SDS011;16482;51.046;4.498;2023-11-19T14:45:07;6.80;;;2.72;;
29538;SDS011;16482;51.046;4.498;2023-11-19T14:47:46;7.53;;;3.10;;
29538;SDS011;16482;51.046;4.498;2023-11-19T14:50:22;7.70;;;2.90;;
29538;SDS011;16482;51.046;4.498;2023-11-19T14:53:06;8.15;;;2.85;;
29538;SDS011;16482;51.046;4.498;2023-11-19T14:55:56;7.85;;;2.78;;
29538;SDS011;16482;51.046;4.498;2023-11-19T14:58:40;7.28;;;2.75;;
29538;SDS011;16482;51.046;4.498;2023-11-19T15:01:16;8.52;;;2.70;;
29538;SDS011;16482;51.046;4.498;2023-11-19T15:07:13;7.35;;;2.97;;
29538;SDS011;16482;51.046;4.498;2023-11-19T15:10:16;7.32;;;2.90;;
29538;SDS011;16482;51.046;4.498;2023-11-19T15:15:48;7.55;;;3.28;;
29538;SDS011;16482;51.046;4.498;2023-11-19T15:18:24;8.52;;;3.00;;
29538;SDS011;16482;51.046;4.498;2023-11-19T15:21:06;9.65;;;3.20;;
29538;SDS011;16482;51.046;4.498;2023-11-19T15:23:45;8.48;;;3.22;;
29538;SDS011;16482;51.046;4.498;2023-11-19T15:26:24;9.57;;;3.13;;
29538;SDS011;16482;51.046;4.498;2023-11-19T15:29:28;5.97;;;2.58;;
29538;SDS011;16482;51.046;4.498;2023-11-19T15:32:05;10.57;;;3.63;;
29538;SDS011;16482;51.046;4.498;2023-11-19T15:35:18;8.40;;;3.28;;
29538;SDS011;16482;51.046;4.498;2023-11-19T15:37:47;7.35;;;3.03;;
29538;SDS011;16482;51.046;4.498;2023-11-19T15:43:34;8.07;;;3.08;;
29538;SDS011;16482;51.046;4.498;2023-11-19T15:46:11;9.98;;;3.25;;
29538;SDS011;16482;51.046;4.498;2023-11-19T15:48:49;8.90;;;2.97;;
29538;SDS011;16482;51.046;4.498;2023-11-19T15:51:40;9.35;;;3.25;;
29538;SDS011;16482;51.046;4.498;2023-11-19T15:54:34;9.35;;;3.15;;
29538;SDS011;16482;51.046;4.498;2023-11-19T15:57:33;8.18;;;3.00;;
29538;SDS011;16482;51.046;4.498;2023-11-19T16:00:14;8.82;;;3.25;;
29538;SDS011;16482;51.046;4.498;2023-11-19T16:03:13;10.23;;;3.13;;
29538;SDS011;16482;51.046;4.498;2023-11-19T16:05:57;10.20;;;3.50;;
29538;SDS011;16482;51.046;4.498;2023-11-19T16:08:40;8.90;;;3.40;;
29538;SDS011;16482;51.046;4.498;2023-11-19T16:11:17;6.63;;;2.78;;
29538;SDS011;16482;51.046;4.498;2023-11-19T16:13:50;8.57;;;3.08;;
29538;SDS011;16482;51.046;4.498;2023-11-19T16:16:43;5.72;;;2.40;;
29538;SDS011;16482;51.046;4.498;2023-11-19T16:19:20;7.70;;;3.05;;
29538;SDS011;16482;51.046;4.498;2023-11-19T16:21:56;8.15;;;3.33;;
29538;SDS011;16482;51.046;4.498;2023-11-19T16:24:38;7.25;;;3.15;;
29538;SDS011;16482;51.046;4.498;2023-11-19T16:27:11;7.53;;;2.92;;
29538;SDS011;16482;51.046;4.498;2023-11-19T16:29:37;7.47;;;2.80;;
29538;SDS011;16482;51.046;4.498;2023-11-19T16:35:23;11.05;;;3.10;;
29538;SDS011;16482;51.046;4.498;2023-11-19T16:38:17;6.55;;;2.80;;
29538;SDS011;16482;51.046;4.498;2023-11-19T16:40:56;9.65;;;3.55;;
29538;SDS011;16482;51.046;4.498;2023-11-19T16:43:48;9.18;;;3.08;;
29538;SDS011;16482;51.046;4.498;2023-11-19T16:46:35;9.18;;;3.05;;
29538;SDS011;16482;51.046;4.498;2023-11-19T16:49:11;9.80;;;3.38;;
29538;SDS011;16482;51.046;4.498;2023-11-19T16:51:49;9.25;;;3.40;;
29538;SDS011;16482;51.046;4.498;2023-11-19T16:54:28;7.93;;;3.17;;
29538;SDS011;16482;51.046;4.498;2023-11-19T16:57:06;7.50;;;3.10;;
29538;SDS011;16482;51.046;4.498;2023-11-19T16:59:48;6.55;;;2.88;;
29538;SDS011;16482;51.046;4.498;2023-11-19T17:02:20;7.40;;;2.72;;
29538;SDS011;16482;51.046;4.498;2023-11-19T17:04:49;7.80;;;2.88;;
29538;SDS011;16482;51.046;4.498;2023-11-19T17:07:42;8.30;;;2.90;;
29538;SDS011;16482;51.046;4.498;2023-11-19T17:10:43;7.82;;;2.95;;
29538;SDS011;16482;51.046;4.498;2023-11-19T17:13:39;9.15;;;3.40;;
29538;SDS011;16482;51.046;4.498;2023-11-19T17:16:38;6.97;;;3.00;;
29538;SDS011;16482;51.046;4.498;2023-11-19T17:19:22;10.23;;;3.42;;
29538;SDS011;16482;51.046;4.498;2023-11-19T17:21:58;5.82;;;2.70;;
29538;SDS011;16482;51.046;4.498;2023-11-19T17:24:27;7.05;;;2.65;;
29538;SDS011;16482;51.046;4.498;2023-11-19T17:27:07;6.65;;;2.58;;
29538;SDS011;16482;51.046;4.498;2023-11-19T17:30:02;7.20;;;2.30;;
29538;SDS011;16482;51.046;4.498;2023-11-19T17:32:47;6.68;;;2.45;;
29538;SDS011;16482;51.046;4.498;2023-11-19T17:35:49;6.68;;;2.85;;
29538;SDS011;16482;51.046;4.498;2023-11-19T17:38:27;8.23;;;2.90;;
29538;SDS011;16482;51.046;4.498;2023-11-19T17:41:14;6.85;;;2.58;;
29538;SDS011;16482;51.046;4.498;2023-11-19T17:43:52;6.00;;;2.55;;
29538;SDS011;16482;51.046;4.498;2023-11-19T17:46:39;7.50;;;2.60;;
29538;SDS011;16482;51.046;4.498;2023-11-19T17:49:17;9.13;;;2.83;;
29538;SDS011;16482;51.046;4.498;2023-11-19T17:51:55;5.88;;;2.42;;
29538;SDS011;16482;51.046;4.498;2023-11-19T17:54:59;6.95;;;2.42;;
29538;SDS011;16482;51.046;4.498;2023-11-19T17:57:30;6.65;;;2.30;;
29538;SDS011;16482;51.046;4.498;2023-11-19T18:00:24;5.95;;;2.58;;
29538;SDS011;16482;51.046;4.498;2023-11-19T18:03:08;5.93;;;2.47;;
29538;SDS011;16482;51.046;4.498;2023-11-19T18:05:53;7.07;;;2.60;;
29538;SDS011;16482;51.046;4.498;2023-11-19T18:11:55;5.28;;;1.90;;
29538;SDS011;16482;51.046;4.498;2023-11-19T18:14:31;5.43;;;2.28;;
29538;SDS011;16482;51.046;4.498;2023-11-19T18:17:28;6.50;;;2.55;;